Eems Trader — V2DE3 — position and weather

sailwx.info

Track history (hours):
 
Tides and Currents Weather Stations Pressure Air Temp Water Temp Dewpoint Dewpoint Depression Visibility Wind Speed Wind Dir Waves Ship Positions

Eems Trader

Last reported at 2014-Jul-27 12:15 UTC. Time now 2014-Jul-31 03:27 UTC.
Position N 43°30' E 004°44'.

; draft 4 m.

Type: Cargo ship. MMSI: 305182000.

Date/timePositionNaut miles runAvg speedWind from/ knotsBaromVisibWave heightAir tempDewpointWater temp
2014-Jul-27 12:15N 43°30' E 004°44'7 7.0
2014-Jul-27 11:17N 43°23' E 004°48'1 0.7
2014-Jul-27 10:33N 43°23' E 004°48'7 7.1
2014-Jul-27 09:33N 43°23' E 004°58'5 5.4
2014-Jul-27 08:33N 43°17' E 005°00'6 6.2
2014-Jul-27 07:33N 43°11' E 005°02'89 9.4
2014-Jul-26 22:04N 42°01' E 003°48'4 8.8
2014-Jul-26 21:33N 41°57' E 003°45'9 8.6
2014-Jul-26 20:33N 41°51' E 003°37'10 9.3
2014-Jul-26 19:30N 41°43' E 003°29'3210.1
2014-Jul-26 16:22N 41°18' E 003°03'9 9.8
2014-Jul-26 15:28N 41°11' E 002°56'910.2
2014-Jul-26 14:33N 41°04' E 002°49'1010.3
2014-Jul-26 13:33N 40°55' E 002°41'1010.2
2014-Jul-26 12:33N 40°47' E 002°32'1010.1
2014-Jul-26 11:33N 40°39' E 002°24'1010.1
2014-Jul-26 10:33N 40°31' E 002°16'1010.3
2014-Jul-26 09:33N 40°23' E 002°08'1010.2
2014-Jul-26 08:33N 40°15' E 001°60'1010.2
2014-Jul-26 07:33N 40°07' E 001°52'1010.1
2014-Jul-26 06:33N 39°59' E 001°43'1010.2
2014-Jul-26 05:33N 39°51' E 001°35'10 9.6
2014-Jul-26 04:33N 39°43' E 001°28'29 9.4
2014-Jul-26 01:27N 39°20' E 001°05'11 9.3
2014-Jul-26 00:14N 39°11' E 000°56'18 9.9
2014-Jul-25 22:22N 38°56' E 000°42'9 9.7
2014-Jul-25 21:25N 38°48' E 000°35'179 9.5
2014-Jul-25 02:30N 36°34' W 001°54'29 9.4
2014-Jul-24 23:22N 36°21' W 002°27'197 9.3
2014-Jul-24 02:07N 36°29' W 006°32'8 9.6
2014-Jul-24 01:16N 36°37' W 006°35'810.0
2014-Jul-24 00:28N 36°44' W 006°39'62 2.1
2014-Jul-22 18:31N 36°47' W 007°56'1010.6
2014-Jul-22 17:33N 36°45' W 008°08'2110.5
2014-Jul-22 15:33N 36°39' W 008°34'1010.0
2014-Jul-22 14:32N 36°36' W 008°46'1010.2
2014-Jul-22 13:33N 36°33' W 008°58'10 9.9
2014-Jul-22 12:33N 36°34' W 009°10'13 9.9
2014-Jul-22 11:17N 36°41' W 009°23'810.4
2014-Jul-22 10:33N 36°46' W 009°30'1010.2
2014-Jul-22 09:33N 36°56' W 009°34'1110.4
2014-Jul-22 08:27N 37°07' W 009°37'910.5
2014-Jul-22 07:33N 37°16' W 009°40'1010.2
2014-Jul-22 06:33N 37°26' W 009°43'1010.3
2014-Jul-22 05:33N 37°36' W 009°46'1010.3
2014-Jul-22 04:33N 37°46' W 009°49'2110.5
2014-Jul-22 02:33N 38°07' W 009°55'1110.5
2014-Jul-22 01:33N 38°17' W 009°58'1010.5
2014-Jul-22 00:33N 38°27' W 010°01'  
2014-Jul-17 21:33N 38°38' W 009°48'11 9.6
2014-Jul-17 20:25N 38°33' W 009°36'8 9.6
2014-Jul-17 19:33N 38°29' W 009°26'10 9.7
2014-Jul-17 18:33N 38°24' W 009°16'9 9.2
2014-Jul-17 17:33N 38°25' W 009°04'8 8.4
2014-Jul-17 16:33N 38°30' W 008°55'  
Track history (hours):
 
Tides and Currents Weather Stations Pressure Air Temp Water Temp Dewpoint Dewpoint Depression Visibility Wind Speed Wind Dir Waves Ship Positions

Eems Trader

Last reported at 2014-Jul-27 12:15 UTC. Time now 2014-Jul-31 03:27 UTC.
Position N 43°30' E 004°44'.

; draft 4 m.

Type: Cargo ship. MMSI: 305182000.

Date/timePositionNaut miles runAvg speedWind from/ knotsBaromVisibWave heightAir tempDewpointWater temp
2014-Jul-27 12:15N 43°30' E 004°44'7 7.0
2014-Jul-27 11:17N 43°23' E 004°48'1 0.7
2014-Jul-27 10:33N 43°23' E 004°48'7 7.1
2014-Jul-27 09:33N 43°23' E 004°58'5 5.4
2014-Jul-27 08:33N 43°17' E 005°00'6 6.2
2014-Jul-27 07:33N 43°11' E 005°02'89 9.4
2014-Jul-26 22:04N 42°01' E 003°48'4 8.8
2014-Jul-26 21:33N 41°57' E 003°45'9 8.6
2014-Jul-26 20:33N 41°51' E 003°37'10 9.3
2014-Jul-26 19:30N 41°43' E 003°29'3210.1
2014-Jul-26 16:22N 41°18' E 003°03'9 9.8
2014-Jul-26 15:28N 41°11' E 002°56'910.2
2014-Jul-26 14:33N 41°04' E 002°49'1010.3
2014-Jul-26 13:33N 40°55' E 002°41'1010.2
2014-Jul-26 12:33N 40°47' E 002°32'1010.1
2014-Jul-26 11:33N 40°39' E 002°24'1010.1
2014-Jul-26 10:33N 40°31' E 002°16'1010.3
2014-Jul-26 09:33N 40°23' E 002°08'1010.2
2014-Jul-26 08:33N 40°15' E 001°60'1010.2
2014-Jul-26 07:33N 40°07' E 001°52'1010.1
2014-Jul-26 06:33N 39°59' E 001°43'1010.2
2014-Jul-26 05:33N 39°51' E 001°35'10 9.6
2014-Jul-26 04:33N 39°43' E 001°28'29 9.4
2014-Jul-26 01:27N 39°20' E 001°05'11 9.3
2014-Jul-26 00:14N 39°11' E 000°56'18 9.9
2014-Jul-25 22:22N 38°56' E 000°42'9 9.7
2014-Jul-25 21:25N 38°48' E 000°35'179 9.5
2014-Jul-25 02:30N 36°34' W 001°54'29 9.4
2014-Jul-24 23:22N 36°21' W 002°27'197 9.3
2014-Jul-24 02:07N 36°29' W 006°32'8 9.6
2014-Jul-24 01:16N 36°37' W 006°35'810.0
2014-Jul-24 00:28N 36°44' W 006°39'62 2.1
2014-Jul-22 18:31N 36°47' W 007°56'1010.6
2014-Jul-22 17:33N 36°45' W 008°08'2110.5
2014-Jul-22 15:33N 36°39' W 008°34'1010.0
2014-Jul-22 14:32N 36°36' W 008°46'1010.2
2014-Jul-22 13:33N 36°33' W 008°58'10 9.9
2014-Jul-22 12:33N 36°34' W 009°10'13 9.9
2014-Jul-22 11:17N 36°41' W 009°23'810.4
2014-Jul-22 10:33N 36°46' W 009°30'1010.2
2014-Jul-22 09:33N 36°56' W 009°34'1110.4
2014-Jul-22 08:27N 37°07' W 009°37'910.5
2014-Jul-22 07:33N 37°16' W 009°40'1010.2
2014-Jul-22 06:33N 37°26' W 009°43'1010.3
2014-Jul-22 05:33N 37°36' W 009°46'1010.3
2014-Jul-22 04:33N 37°46' W 009°49'2110.5
2014-Jul-22 02:33N 38°07' W 009°55'1110.5
2014-Jul-22 01:33N 38°17' W 009°58'1010.5
2014-Jul-22 00:33N 38°27' W 010°01'  
2014-Jul-17 21:33N 38°38' W 009°48'11 9.6
2014-Jul-17 20:25N 38°33' W 009°36'8 9.6
2014-Jul-17 19:33N 38°29' W 009°26'10 9.7
2014-Jul-17 18:33N 38°24' W 009°16'9 9.2
2014-Jul-17 17:33N 38°25' W 009°04'8 8.4
2014-Jul-17 16:33N 38°30' W 008°55'  

Dump ship's entire track history